Time;durP1;ratioP1;P1;durP2;ratioP2;P2;SDS_P1;SDS_P2;PMS_P1;PMS_P2;Temp;Humidity;BMP_temperature;BMP_pressure;BME280_temperature;BME280_humidity;BME280_pressure;Samples;Min_cycle;Max_cycle;Signal;HPM_P1;HPM_P2
2022/05/08 00:01:35;;;;;;;5.40;2.90;;;16.10;74.50;;;;;;5069775;28;20048;-70
2022/05/08 00:04:03;;;;;;;5.90;3.13;;;16.10;74.60;;;;;;5071793;28;20102;-71
2022/05/08 00:06:31;;;;;;;7.60;3.38;;;16.10;74.70;;;;;;5080490;28;20141;-71
2022/05/08 00:09:00;;;;;;;5.95;3.25;;;16.10;74.60;;;;;;5080047;28;20032;-72
2022/05/08 00:11:27;;;;;;;5.45;3.10;;;16.00;74.60;;;;;;5080146;28;20047;-71
2022/05/08 00:13:54;;;;;;;3.85;2.47;;;16.00;74.80;;;;;;5077105;28;20071;-71
2022/05/08 00:16:21;;;;;;;5.05;2.67;;;16.00;74.90;;;;;;5076226;28;20056;-72
2022/05/08 00:18:47;;;;;;;5.40;3.03;;;15.90;74.90;;;;;;5068952;28;20060;-72
2022/05/08 00:21:14;;;;;;;5.25;2.75;;;15.90;75.20;;;;;;5079024;28;20052;-71
2022/05/08 00:23:43;;;;;;;5.18;2.70;;;15.90;75.40;;;;;;5077325;28;20504;-71
2022/05/08 00:26:09;;;;;;;5.13;2.80;;;15.90;75.50;;;;;;5078686;28;20045;-71
2022/05/08 00:28:37;;;;;;;3.92;2.42;;;15.90;75.60;;;;;;5082153;28;20063;-71
2022/05/08 00:31:04;;;;;;;7.15;3.15;;;15.80;75.70;;;;;;5081417;28;20044;-72
2022/05/08 00:33:32;;;;;;;7.95;3.17;;;15.80;75.70;;;;;;5083298;28;20139;-71
2022/05/08 00:35:59;;;;;;;5.13;2.70;;;15.80;75.60;;;;;;5083701;28;20118;-72
2022/05/08 00:38:26;;;;;;;4.88;2.55;;;15.90;75.30;;;;;;5083501;28;20422;-71
2022/05/08 00:40:54;;;;;;;6.63;3.05;;;15.90;74.90;;;;;;5084364;28;20057;-71
2022/05/08 00:43:32;;;;;;;5.57;2.65;;;15.80;74.70;;;;;;5083246;28;20555;-71
2022/05/08 00:46:03;;;;;;;4.88;2.80;;;15.90;74.60;;;;;;5082653;28;20130;-70
2022/05/08 00:48:30;;;;;;;6.25;2.70;;;15.90;74.60;;;;;;5080298;28;20071;-72
2022/05/08 00:50:58;;;;;;;7.15;2.85;;;15.90;74.40;;;;;;5066847;28;20044;-71
2022/05/08 00:53:27;;;;;;;5.00;3.33;;;15.90;74.60;;;;;;5081740;28;20048;-72
2022/05/08 00:55:56;;;;;;;6.30;2.75;;;15.80;74.80;;;;;;5081233;28;20104;-71
2022/05/08 00:58:24;;;;;;;4.55;2.70;;;15.80;75.00;;;;;;5080688;28;20048;-72
2022/05/08 01:00:51;;;;;;;6.65;3.22;;;15.80;75.00;;;;;;5055068;28;20126;-71
2022/05/08 01:03:18;;;;;;;4.45;2.33;;;15.70;75.20;;;;;;5076962;28;20129;-72
2022/05/08 01:05:47;;;;;;;4.88;2.85;;;15.70;75.40;;;;;;5064685;28;20052;-71
2022/05/08 01:08:14;;;;;;;4.10;2.70;;;15.60;75.30;;;;;;5061259;28;20059;-71
2022/05/08 01:10:42;;;;;;;6.35;2.97;;;15.60;75.30;;;;;;5060309;28;20137;-71
2022/05/08 01:13:10;;;;;;;4.70;2.72;;;15.60;75.00;;;;;;5051886;28;20045;-71
2022/05/08 01:15:42;;;;;;;4.05;2.42;;;15.60;74.90;;;;;;5073911;28;20381;-71
2022/05/08 01:18:09;;;;;;;5.32;2.40;;;15.60;74.80;;;;;;5071202;28;20478;-71
2022/05/08 01:20:36;;;;;;;7.75;3.08;;;15.50;74.90;;;;;;5045361;28;20116;-71
2022/05/08 01:23:06;;;;;;;5.22;2.40;;;15.50;74.80;;;;;;5065412;28;20513;-70
2022/05/08 01:25:34;;;;;;;4.82;2.63;;;15.50;74.90;;;;;;5063312;28;20047;-71
2022/05/08 01:28:04;;;;;;;5.20;2.70;;;15.40;74.90;;;;;;5071774;28;20048;-72
2022/05/08 01:30:32;;;;;;;7.57;2.95;;;15.40;74.90;;;;;;5069572;28;20040;-71
2022/05/08 01:33:00;;;;;;;8.80;3.60;;;15.40;74.90;;;;;;5062817;28;20084;-72
2022/05/08 01:35:28;;;;;;;5.60;2.33;;;15.30;74.90;;;;;;5060485;28;20037;-72
2022/05/08 01:37:55;;;;;;;6.25;2.45;;;15.30;74.90;;;;;;5063771;28;20095;-71
2022/05/08 01:40:25;;;;;;;5.70;3.10;;;15.30;75.00;;;;;;5065237;28;20143;-72
2022/05/08 01:42:54;;;;;;;4.22;2.40;;;15.20;75.00;;;;;;5073478;28;20055;-72
2022/05/08 01:45:21;;;;;;;5.50;3.10;;;15.20;75.00;;;;;;5068825;28;20044;-70
2022/05/08 01:50:32;;;;;;;5.90;2.90;;;15.10;75.20;;;;;;5072068;28;20101;-71
2022/05/08 01:52:59;;;;;;;7.28;3.30;;;15.10;75.30;;;;;;5069301;28;20032;-71
2022/05/08 01:55:28;;;;;;;5.07;2.72;;;15.00;75.50;;;;;;5079435;28;20055;-72
2022/05/08 01:57:57;;;;;;;3.90;2.30;;;14.90;75.60;;;;;;5072014;28;20483;-73
2022/05/08 02:00:24;;;;;;;6.18;2.88;;;14.90;75.50;;;;;;5071257;28;20051;-72
2022/05/08 02:02:53;;;;;;;6.00;2.80;;;14.90;75.40;;;;;;5073655;28;20045;-72
2022/05/08 02:05:21;;;;;;;5.50;2.65;;;14.90;75.50;;;;;;5065402;28;20110;-72
2022/05/08 02:07:49;;;;;;;5.68;2.78;;;14.90;75.50;;;;;;5064228;28;20045;-72
2022/05/08 02:10:18;;;;;;;4.93;2.83;;;14.90;75.50;;;;;;5062642;28;20052;-71
2022/05/08 02:12:46;;;;;;;5.10;2.65;;;14.80;75.60;;;;;;5068448;28;20040;-71
2022/05/08 02:15:14;;;;;;;9.17;3.00;;;14.80;75.60;;;;;;5077672;28;20047;-71
2022/05/08 02:17:41;;;;;;;6.78;2.75;;;14.70;75.60;;;;;;5077724;28;20462;-71
2022/05/08 02:20:10;;;;;;;5.03;2.50;;;14.70;75.60;;;;;;5054666;28;20048;-72
2022/05/08 02:22:38;;;;;;;4.22;2.80;;;14.70;75.60;;;;;;5052580;28;20071;-72
2022/05/08 02:25:06;;;;;;;5.57;2.45;;;14.70;75.60;;;;;;5071154;28;20032;-72
2022/05/08 02:27:38;;;;;;;6.32;2.80;;;14.60;75.60;;;;;;5066663;28;20053;-72
2022/05/08 02:30:09;;;;;;;4.75;2.50;;;14.60;75.70;;;;;;5068934;28;20036;-71
2022/05/08 02:32:36;;;;;;;5.50;2.45;;;14.60;75.70;;;;;;5064774;28;20049;-71
2022/05/08 02:35:04;;;;;;;7.88;3.97;;;14.50;75.70;;;;;;5044323;28;20037;-71
2022/05/08 02:37:31;;;;;;;6.40;2.95;;;14.60;75.70;;;;;;5043038;28;20095;-71
2022/05/08 02:39:58;;;;;;;5.20;2.60;;;14.60;75.50;;;;;;5044163;28;20037;-71
2022/05/08 02:42:26;;;;;;;4.32;2.55;;;14.60;75.40;;;;;;5042845;28;20041;-71
2022/05/08 02:44:53;;;;;;;5.03;2.70;;;14.60;75.40;;;;;;5047786;28;20702;-71
2022/05/08 02:47:21;;;;;;;6.22;2.55;;;14.60;75.50;;;;;;5043883;28;20056;-72
2022/05/08 02:49:48;;;;;;;4.75;2.63;;;14.50;75.40;;;;;;5043962;28;20036;-71
2022/05/08 02:52:15;;;;;;;4.80;2.72;;;14.40;75.50;;;;;;5044324;28;20053;-71
2022/05/08 02:54:42;;;;;;;5.72;2.85;;;14.40;75.60;;;;;;5046067;28;20052;-72
2022/05/08 02:59:53;;;;;;;6.88;3.20;;;14.40;75.70;;;;;;5043709;28;20041;-71
2022/05/08 03:02:21;;;;;;;5.28;2.40;;;14.40;75.70;;;;;;5038436;28;20493;-71
2022/05/08 03:04:48;;;;;;;4.35;2.53;;;14.30;75.70;;;;;;5041936;28;20045;-72
2022/05/08 03:07:15;;;;;;;4.72;2.38;;;14.30;75.90;;;;;;5041644;28;20052;-70
2022/05/08 03:09:42;;;;;;;4.55;2.08;;;14.20;75.90;;;;;;5042149;28;20717;-70
2022/05/08 03:12:10;;;;;;;4.75;2.63;;;14.20;75.90;;;;;;5042314;28;20048;-70
2022/05/08 03:14:39;;;;;;;5.20;2.55;;;14.20;76.00;;;;;;5041931;28;20162;-72
2022/05/08 03:17:07;;;;;;;4.75;2.50;;;14.20;76.00;;;;;;5042930;28;20047;-72
2022/05/08 03:19:35;;;;;;;4.13;2.45;;;14.20;76.00;;;;;;5026012;28;20095;-72
2022/05/08 03:22:02;;;;;;;5.50;2.55;;;14.20;75.90;;;;;;5035266;28;20139;-71
2022/05/08 03:24:31;;;;;;;4.88;2.35;;;14.10;75.90;;;;;;5051783;28;20041;-71
2022/05/08 03:26:58;;;;;;;5.32;2.80;;;14.10;75.90;;;;;;5043676;28;20548;-72
2022/05/08 03:29:26;;;;;;;5.32;3.05;;;14.10;75.90;;;;;;5042120;28;20037;-72
2022/05/08 03:31:53;;;;;;;5.43;2.67;;;14.10;76.00;;;;;;5045411;28;20041;-72
2022/05/08 03:34:22;;;;;;;4.75;2.40;;;14.10;76.20;;;;;;5040999;28;20140;-71
2022/05/08 03:36:50;;;;;;;4.82;2.50;;;14.00;76.30;;;;;;5043552;28;20052;-72
2022/05/08 03:39:17;;;;;;;4.20;2.65;;;13.90;76.30;;;;;;5042366;28;20052;-70
2022/05/08 03:41:44;;;;;;;4.50;2.58;;;13.90;76.20;;;;;;5045166;28;20076;-72
2022/05/08 03:44:10;;;;;;;4.68;2.15;;;13.90;76.20;;;;;;5041978;28;20040;-70
2022/05/08 03:46:37;;;;;;;4.95;2.47;;;13.90;76.30;;;;;;5039119;28;20039;-72
2022/05/08 03:49:04;;;;;;;5.47;2.60;;;13.90;76.30;;;;;;5031903;28;20044;-70
2022/05/08 03:51:31;;;;;;;6.32;2.50;;;13.80;76.40;;;;;;5039234;28;20151;-72
2022/05/08 03:53:59;;;;;;;5.32;2.63;;;13.80;76.40;;;;;;5033690;28;20041;-73
2022/05/08 03:56:27;;;;;;;5.10;2.65;;;13.80;76.40;;;;;;5035093;28;20053;-70
2022/05/08 03:58:54;;;;;;;4.10;2.28;;;13.70;76.40;;;;;;5042204;28;20048;-71
2022/05/08 04:01:21;;;;;;;4.05;2.35;;;13.70;76.40;;;;;;5040861;28;20041;-72
2022/05/08 04:03:48;;;;;;;5.43;2.58;;;13.70;76.50;;;;;;5040933;28;20055;-72
2022/05/08 04:06:15;;;;;;;5.55;2.65;;;13.70;76.60;;;;;;5037920;28;20076;-72
2022/05/08 04:08:42;;;;;;;5.50;2.42;;;13.60;76.60;;;;;;5031607;28;20601;-71
2022/05/08 04:11:11;;;;;;;5.78;2.90;;;13.60;76.60;;;;;;5032215;28;20037;-71
2022/05/08 04:13:38;;;;;;;4.40;2.22;;;13.60;76.60;;;;;;5039105;28;20043;-71
2022/05/08 04:16:18;;;;;;;6.22;2.42;;;13.60;76.60;;;;;;5036518;28;20140;-71
2022/05/08 04:18:46;;;;;;;4.43;2.28;;;13.60;76.50;;;;;;5038349;28;20042;-71
2022/05/08 04:21:13;;;;;;;4.85;2.40;;;13.60;76.60;;;;;;5037786;28;20053;-71
2022/05/08 04:26:26;;;;;;;3.65;2.35;;;13.60;76.70;;;;;;5039657;28;20038;-70
2022/05/08 04:28:53;;;;;;;4.32;2.55;;;13.60;76.90;;;;;;5037211;28;20037;-72
2022/05/08 04:31:22;;;;;;;5.43;2.65;;;13.50;77.00;;;;;;5036414;28;20491;-70
2022/05/08 04:33:49;;;;;;;5.15;2.22;;;13.60;76.80;;;;;;5039941;28;20514;-71
2022/05/08 04:36:17;;;;;;;5.80;2.38;;;13.70;76.70;;;;;;5038256;28;20041;-70
2022/05/08 04:38:44;;;;;;;5.15;2.80;;;13.70;76.70;;;;;;5034460;28;20033;-70
2022/05/08 04:41:11;;;;;;;3.60;2.25;;;13.60;76.80;;;;;;5037738;28;20049;-71
2022/05/08 04:43:42;;;;;;;5.43;2.60;;;13.70;76.70;;;;;;5046731;28;20142;-72
2022/05/08 04:46:09;;;;;;;9.73;2.53;;;13.70;76.50;;;;;;5041477;28;20467;-71
2022/05/08 04:48:37;;;;;;;4.32;2.50;;;13.70;76.50;;;;;;5042993;28;20511;-71
2022/05/08 04:51:04;;;;;;;4.75;2.47;;;13.70;76.40;;;;;;5046050;28;20044;-72
2022/05/08 04:53:31;;;;;;;3.50;2.28;;;13.80;76.40;;;;;;5042880;28;20045;-70
2022/05/08 04:55:58;;;;;;;4.20;2.53;;;13.80;76.50;;;;;;5048458;28;20060;-71
2022/05/08 04:58:29;;;;;;;4.20;2.40;;;13.80;76.50;;;;;;5048144;28;20494;-72
2022/05/08 05:00:58;;;;;;;4.72;2.45;;;13.80;76.70;;;;;;5042031;28;20033;-72
2022/05/08 05:03:26;;;;;;;6.22;2.60;;;13.80;76.80;;;;;;5046609;28;20050;-71
2022/05/08 05:05:53;;;;;;;4.80;2.47;;;13.80;76.80;;;;;;5048303;28;20045;-72
2022/05/08 05:08:20;;;;;;;7.70;2.38;;;13.90;76.90;;;;;;5041763;28;20053;-71
2022/05/08 05:10:48;;;;;;;6.25;2.50;;;13.80;77.20;;;;;;5042643;28;20040;-71
2022/05/08 05:13:15;;;;;;;6.05;2.90;;;13.90;77.10;;;;;;5043832;28;20045;-71
2022/05/08 05:15:42;;;;;;;4.10;2.50;;;13.90;77.00;;;;;;5046085;28;20045;-70
2022/05/08 05:18:11;;;;;;;4.93;2.55;;;13.90;77.00;;;;;;5039577;28;22027;-71
2022/05/08 05:20:38;;;;;;;5.53;2.35;;;14.00;77.30;;;;;;5036781;28;20041;-71
2022/05/08 05:23:05;;;;;;;4.63;2.38;;;14.00;77.20;;;;;;5045394;28;20041;-71
2022/05/08 05:25:32;;;;;;;6.18;2.60;;;14.10;77.20;;;;;;5046361;28;20041;-71
2022/05/08 05:27:59;;;;;;;4.80;2.40;;;14.10;77.10;;;;;;5042635;28;20989;-72
2022/05/08 05:30:26;;;;;;;5.20;2.60;;;14.10;77.10;;;;;;5040465;28;20052;-71
2022/05/08 05:32:53;;;;;;;5.18;2.20;;;14.20;77.00;;;;;;5052678;28;20083;-71
2022/05/08 05:35:21;;;;;;;5.57;2.70;;;14.20;77.00;;;;;;5072413;28;20046;-70
2022/05/08 05:37:48;;;;;;;3.95;2.33;;;14.30;76.90;;;;;;5069350;28;20045;-70
2022/05/08 05:40:15;;;;;;;4.53;2.03;;;14.30;77.00;;;;;;5068341;28;20451;-70
2022/05/08 05:42:42;;;;;;;5.28;2.90;;;14.40;76.90;;;;;;5072659;28;20032;-71
2022/05/08 05:45:10;;;;;;;4.72;2.58;;;14.40;77.00;;;;;;5068504;28;20040;-71
2022/05/08 05:47:52;;;;;;;6.57;2.40;;;14.40;76.90;;;;;;5067536;28;20474;-72
2022/05/08 05:50:22;;;;;;;6.80;2.15;;;14.50;77.10;;;;;;5067263;28;20082;-70
2022/05/08 05:52:49;;;;;;;5.18;2.50;;;14.50;77.30;;;;;;5068735;28;20055;-71
2022/05/08 05:55:16;;;;;;;5.63;2.72;;;14.50;77.40;;;;;;5069260;28;20059;-71
2022/05/08 05:57:44;;;;;;;5.40;3.22;;;14.60;77.40;;;;;;5067068;28;20051;-72
2022/05/08 06:00:13;;;;;;;4.00;2.20;;;14.60;77.60;;;;;;5067829;28;20075;-71
2022/05/08 06:02:43;;;;;;;4.35;2.33;;;14.60;77.50;;;;;;5072117;28;20393;-72
2022/05/08 06:05:11;;;;;;;3.63;1.75;;;14.60;77.60;;;;;;5066210;28;20170;-72
2022/05/08 06:07:43;;;;;;;5.60;2.57;;;14.70;77.30;;;;;;5069066;28;20053;-72
2022/05/08 06:10:12;;;;;;;6.72;2.30;;;14.70;77.30;;;;;;5069004;28;20060;-70
2022/05/08 06:12:41;;;;;;;5.80;3.03;;;14.80;77.20;;;;;;5071138;28;20044;-71
2022/05/08 06:15:10;;;;;;;6.82;3.22;;;14.90;77.20;;;;;;5068537;28;20042;-70
2022/05/08 06:17:37;;;;;;;6.97;3.33;;;14.90;77.30;;;;;;5062705;28;20033;-71
2022/05/08 06:20:05;;;;;;;8.52;3.35;;;15.00;77.10;;;;;;5061788;28;20053;-72
2022/05/08 06:22:33;;;;;;;12.35;4.60;;;15.10;77.00;;;;;;5053773;28;20183;-71
2022/05/08 06:25:03;;;;;;;9.13;3.78;;;15.10;77.00;;;;;;5053006;28;21516;-70
2022/05/08 06:27:30;;;;;;;8.63;4.30;;;15.20;77.10;;;;;;5064831;28;20047;-71
2022/05/08 06:29:58;;;;;;;9.43;4.97;;;15.30;76.60;;;;;;5064175;28;20478;-72
2022/05/08 06:32:26;;;;;;;9.75;5.20;;;15.40;76.30;;;;;;5058458;28;20048;-72
2022/05/08 06:34:53;;;;;;;8.93;4.88;;;15.50;76.60;;;;;;5062720;28;20119;-71
2022/05/08 06:37:20;;;;;;;9.75;4.65;;;15.60;76.30;;;;;;5071066;28;20067;-70
2022/05/08 06:39:47;;;;;;;7.32;4.00;;;15.70;76.30;;;;;;5066595;28;20044;-71
2022/05/08 06:42:15;;;;;;;8.00;4.45;;;15.80;75.90;;;;;;5061853;28;20502;-71
2022/05/08 06:44:47;;;;;;;8.82;5.00;;;15.90;75.80;;;;;;5052970;28;20068;-71
2022/05/08 06:47:14;;;;;;;10.40;4.53;;;16.00;75.50;;;;;;5070814;28;20118;-75
2022/05/08 06:49:41;;;;;;;7.18;4.18;;;16.10;75.40;;;;;;5059283;28;20037;-71
2022/05/08 06:52:08;;;;;;;11.05;5.18;;;16.20;75.00;;;;;;5058927;28;20045;-71
2022/05/08 06:54:35;;;;;;;9.30;5.00;;;16.20;74.80;;;;;;5066442;28;20059;-71
2022/05/08 06:57:02;;;;;;;6.93;4.03;;;16.40;74.80;;;;;;5059305;28;20115;-70
2022/05/08 07:02:15;;;;;;;8.70;4.18;;;16.60;74.20;;;;;;5055390;28;20501;-72
2022/05/08 07:04:42;;;;;;;8.45;4.07;;;16.70;73.90;;;;;;5062908;28;20076;-72
2022/05/08 07:07:09;;;;;;;8.45;4.60;;;16.80;73.70;;;;;;5067345;28;20046;-72
2022/05/08 07:09:37;;;;;;;6.80;4.07;;;16.90;73.80;;;;;;5061614;28;20048;-71
2022/05/08 07:12:07;;;;;;;9.25;4.72;;;17.10;73.80;;;;;;5060021;28;20470;-71
2022/05/08 07:14:35;;;;;;;9.60;4.60;;;17.10;72.60;;;;;;5063830;28;20040;-71
2022/05/08 07:17:03;;;;;;;8.00;4.43;;;17.20;72.80;;;;;;5062436;28;20397;-73
2022/05/08 07:19:30;;;;;;;7.93;4.28;;;17.40;72.60;;;;;;5061636;28;20516;-71
2022/05/08 07:21:57;;;;;;;9.70;4.70;;;17.50;71.70;;;;;;5062124;28;20040;-72
2022/05/08 07:24:24;;;;;;;8.80;4.57;;;17.50;72.20;;;;;;5069238;28;20047;-72
2022/05/08 07:26:50;;;;;;;7.32;4.05;;;17.60;71.40;;;;;;5065331;28;20045;-71
2022/05/08 07:29:17;;;;;;;6.93;4.40;;;17.80;71.70;;;;;;5061635;28;20060;-72
2022/05/08 07:31:46;;;;;;;7.93;4.18;;;17.90;71.30;;;;;;5068122;28;20044;-72
2022/05/08 07:36:58;;;;;;;6.75;4.18;;;18.10;71.10;;;;;;5063756;28;20163;-72
2022/05/08 07:39:25;;;;;;;9.35;4.10;;;18.10;70.40;;;;;;5064158;28;20327;-71
2022/05/08 07:41:52;;;;;;;8.05;4.53;;;18.20;70.40;;;;;;5064582;28;20036;-70
2022/05/08 07:44:19;;;;;;;8.32;4.47;;;18.30;69.80;;;;;;5067008;28;20047;-72
2022/05/08 07:46:47;;;;;;;8.73;4.40;;;18.30;69.40;;;;;;5062184;28;20048;-72
2022/05/08 07:49:14;;;;;;;8.48;4.55;;;18.40;68.90;;;;;;5061148;28;20044;-72
2022/05/08 07:51:41;;;;;;;6.68;3.97;;;18.40;69.00;;;;;;5061841;28;20048;-72
2022/05/08 07:54:07;;;;;;;9.65;4.03;;;18.50;68.60;;;;;;5062762;28;20040;-74
2022/05/08 07:56:35;;;;;;;5.95;3.80;;;18.60;68.90;;;;;;5064737;28;20939;-72
2022/05/08 07:59:04;;;;;;;9.05;4.20;;;18.60;68.60;;;;;;5064369;28;20076;-72
2022/05/08 08:01:30;;;;;;;8.38;3.67;;;18.70;68.90;;;;;;5060171;28;20054;-72
2022/05/08 08:04:00;;;;;;;6.43;3.67;;;18.80;68.20;;;;;;5064006;28;20044;-73
2022/05/08 08:06:28;;;;;;;7.50;3.67;;;18.90;67.70;;;;;;5063154;28;20094;-71
2022/05/08 08:08:55;;;;;;;6.28;3.53;;;18.90;68.40;;;;;;5063322;28;20037;-71
2022/05/08 08:11:22;;;;;;;5.60;3.45;;;19.10;68.20;;;;;;5063102;28;20044;-71
2022/05/08 08:13:48;;;;;;;7.05;3.00;;;19.10;67.80;;;;;;5062548;28;20043;-73
2022/05/08 08:16:15;;;;;;;7.97;4.07;;;19.20;67.10;;;;;;5063304;28;20056;-72
2022/05/08 08:18:45;;;;;;;7.22;3.85;;;19.30;68.00;;;;;;5064318;28;20075;-72
2022/05/08 08:21:14;;;;;;;7.88;3.75;;;19.40;67.30;;;;;;5066246;28;20986;-72
2022/05/08 08:23:43;;;;;;;6.18;3.75;;;19.50;67.20;;;;;;5067196;28;20059;-72
2022/05/08 08:26:12;;;;;;;6.33;3.40;;;19.60;67.00;;;;;;5064021;28;20059;-72
2022/05/08 08:28:39;;;;;;;5.55;3.13;;;19.60;66.80;;;;;;5061940;28;20053;-73
2022/05/08 08:31:07;;;;;;;6.15;3.22;;;19.70;67.20;;;;;;5067278;28;20043;-73
2022/05/08 08:33:34;;;;;;;6.47;3.20;;;19.80;66.90;;;;;;5066637;28;20055;-72
2022/05/08 08:36:01;;;;;;;8.52;4.40;;;19.90;66.50;;;;;;5067482;28;20055;-73
2022/05/08 08:38:31;;;;;;;5.82;2.90;;;20.10;66.70;;;;;;5065650;28;20055;-72
2022/05/08 08:41:02;;;;;;;8.27;3.50;;;20.20;66.40;;;;;;5067265;28;20044;-72
2022/05/08 08:43:30;;;;;;;5.47;2.90;;;20.30;65.90;;;;;;5069381;28;20127;-71
2022/05/08 08:48:50;;;;;;;6.05;3.60;;;20.40;65.70;;;;;;5063697;28;20162;-72
2022/05/08 08:51:17;;;;;;;7.43;4.13;;;20.60;65.80;;;;;;5057077;28;20052;-74
2022/05/08 08:53:46;;;;;;;8.02;3.92;;;20.70;65.00;;;;;;5068327;28;20041;-76
2022/05/08 08:56:17;;;;;;;4.72;2.95;;;20.70;64.20;;;;;;5066839;28;20040;-73
2022/05/08 08:58:45;;;;;;;6.70;4.00;;;20.90;64.50;;;;;;5067473;28;20665;-73
2022/05/08 09:01:15;;;;;;;5.93;3.58;;;20.90;64.50;;;;;;5064537;28;20041;-74
2022/05/08 09:03:41;;;;;;;7.53;3.65;;;21.00;64.10;;;;;;5062115;28;20041;-73
2022/05/08 09:06:09;;;;;;;4.82;2.78;;;21.10;63.10;;;;;;5065310;28;20040;-73
2022/05/08 09:08:36;;;;;;;6.70;3.05;;;21.10;63.30;;;;;;5063996;28;20044;-74
2022/05/08 09:11:04;;;;;;;4.63;2.58;;;21.20;62.70;;;;;;5061978;28;20117;-73
2022/05/08 09:13:34;;;;;;;5.30;2.80;;;21.20;63.40;;;;;;5066998;28;20516;-73
2022/05/08 09:16:06;;;;;;;4.95;2.90;;;21.20;62.60;;;;;;5066718;28;20060;-74
2022/05/08 09:18:44;;;;;;;6.25;3.13;;;21.30;62.20;;;;;;5066288;28;20071;-74
2022/05/08 09:24:08;;;;;;;6.38;2.90;;;21.60;62.00;;;;;;5063945;28;20048;-71
2022/05/08 09:26:39;;;;;;;7.40;2.80;;;21.60;61.30;;;;;;5063871;28;20045;-74
2022/05/08 09:29:07;;;;;;;6.85;2.90;;;21.50;61.30;;;;;;5064831;28;20060;-73
2022/05/08 09:31:41;;;;;;;4.93;2.50;;;21.60;61.10;;;;;;5065589;28;20044;-72
2022/05/08 09:34:08;;;;;;;4.85;2.78;;;21.60;61.00;;;;;;5065247;28;20109;-75
2022/05/08 09:36:36;;;;;;;9.02;3.05;;;21.70;60.40;;;;;;5064242;28;20478;-73
2022/05/08 09:39:05;;;;;;;4.30;2.33;;;21.70;60.30;;;;;;5064479;28;20032;-73
2022/05/08 09:41:35;;;;;;;3.10;1.92;;;21.80;59.70;;;;;;5066026;28;20048;-73
2022/05/08 09:44:11;;;;;;;;;;;21.80;59.90;;;;;;5065166;28;20044;-74
2022/05/08 09:46:39;;;;;;;5.25;2.28;;;21.90;59.70;;;;;;5067274;28;19924;-73
2022/05/08 09:49:07;;;;;;;3.35;2.13;;;22.00;59.30;;;;;;5065848;28;20115;-74
2022/05/08 09:51:34;;;;;;;6.38;2.85;;;22.10;59.70;;;;;;5070475;28;20037;-69
2022/05/08 09:54:02;;;;;;;4.65;2.85;;;22.10;59.40;;;;;;5068305;28;20037;-70
2022/05/08 09:56:29;;;;;;;5.88;2.47;;;22.20;59.10;;;;;;5066480;28;20043;-74
2022/05/08 09:58:57;;;;;;;6.75;2.95;;;22.20;58.90;;;;;;5065942;28;20051;-74
2022/05/08 10:01:28;;;;;;;5.20;2.53;;;22.30;57.90;;;;;;5058070;28;20039;-73
2022/05/08 10:03:55;;;;;;;6.55;2.97;;;22.20;57.70;;;;;;5061979;28;20048;-73
2022/05/08 10:06:24;;;;;;;6.22;2.50;;;22.20;57.40;;;;;;5065224;28;20436;-72
2022/05/08 10:08:52;;;;;;;6.82;2.47;;;22.20;57.00;;;;;;5064102;28;20055;-73
2022/05/08 10:14:05;;;;;;;4.80;2.60;;;22.20;57.80;;;;;;5064846;28;20037;-73
2022/05/08 10:16:48;;;;;;;6.28;2.83;;;22.30;58.10;;;;;;5068985;28;20608;-74
2022/05/08 10:19:54;;;;;;;9.75;3.60;;;22.40;58.00;;;;;;5064371;28;20486;-73
2022/05/08 10:22:22;;;;;;;6.10;2.72;;;22.60;57.60;;;;;;5065078;28;20498;-72
2022/05/08 10:24:55;;;;;;;4.97;2.72;;;22.60;57.50;;;;;;5065393;28;20045;-75
2022/05/08 10:27:31;;;;;;;6.85;3.65;;;22.80;57.60;;;;;;5048112;28;20048;-72
2022/05/08 10:30:31;;;;;;;6.97;3.42;;;22.80;56.60;;;;;;5045434;28;20413;-73
2022/05/08 10:33:00;;;;;;;5.70;3.20;;;22.90;57.40;;;;;;5056655;28;20080;-72
2022/05/08 10:35:29;;;;;;;5.35;2.83;;;23.00;57.30;;;;;;5037551;28;20044;-72
2022/05/08 10:38:25;;;;;;;4.47;2.28;;;23.00;56.70;;;;;;5045076;28;20084;-74
2022/05/08 10:40:55;;;;;;;5.88;2.30;;;23.00;55.80;;;;;;5038658;28;20087;-73
2022/05/08 10:43:28;;;;;;;4.03;1.90;;;23.10;55.90;;;;;;5042246;28;20127;-73
2022/05/08 10:45:56;;;;;;;6.65;2.53;;;23.10;54.30;;;;;;5032570;28;20529;-74
2022/05/08 10:48:30;;;;;;;3.72;2.30;;;23.20;54.10;;;;;;5032596;28;20049;-73
2022/05/08 10:51:00;;;;;;;4.35;1.92;;;23.20;54.60;;;;;;5041896;28;20486;-72
2022/05/08 10:53:29;;;;;;;5.70;2.22;;;23.30;54.50;;;;;;5042269;28;20052;-73
2022/05/08 10:56:01;;;;;;;3.75;2.20;;;23.40;54.80;;;;;;5026813;28;20045;-72
2022/05/08 10:58:29;;;;;;;5.35;2.95;;;23.40;55.40;;;;;;5045457;28;20067;-74
2022/05/08 11:00:57;;;;;;;4.97;2.42;;;23.40;54.90;;;;;;5040120;28;20075;-72
2022/05/08 11:03:26;;;;;;;4.22;2.25;;;23.30;54.90;;;;;;5039813;28;20051;-75
2022/05/08 11:05:53;;;;;;;4.67;2.07;;;23.50;55.30;;;;;;5039649;28;20037;-74
2022/05/08 11:08:25;;;;;;;3.92;2.45;;;23.50;54.60;;;;;;5040849;28;20483;-72
2022/05/08 11:11:07;;;;;;;4.10;2.20;;;23.30;54.40;;;;;;5038588;28;20102;-72
2022/05/08 11:13:47;;;;;;;3.88;2.67;;;23.30;54.40;;;;;;5043278;28;20143;-73
2022/05/08 11:16:29;;;;;;;6.22;2.88;;;23.20;54.10;;;;;;5042952;28;20409;-73
2022/05/08 11:19:00;;;;;;;4.88;2.72;;;23.10;54.50;;;;;;5043282;28;21341;-73
2022/05/08 11:21:27;;;;;;;6.50;3.22;;;23.10;54.50;;;;;;5042338;28;20057;-74
2022/05/08 11:23:55;;;;;;;5.05;2.83;;;23.00;54.70;;;;;;5043198;28;20048;-73
2022/05/08 11:26:28;;;;;;;5.00;2.95;;;22.90;55.20;;;;;;5043706;28;20128;-74
2022/05/08 11:28:55;;;;;;;5.13;2.72;;;22.80;55.50;;;;;;5024999;28;20059;-75
2022/05/08 11:31:24;;;;;;;4.72;2.70;;;22.70;55.70;;;;;;5038353;28;20047;-74
2022/05/08 11:36:39;;;;;;;6.80;3.00;;;22.50;56.30;;;;;;5061010;28;20041;-74
2022/05/08 11:39:10;;;;;;;5.78;3.35;;;22.40;56.70;;;;;;5064856;28;20049;-74
2022/05/08 11:41:38;;;;;;;6.78;2.42;;;22.30;57.40;;;;;;5068632;28;20502;-74
2022/05/08 11:44:28;;;;;;;4.77;3.20;;;22.20;58.00;;;;;;5070709;28;20071;-76
2022/05/08 11:46:56;;;;;;;5.65;3.25;;;22.10;58.00;;;;;;5069909;28;20467;-74
2022/05/08 11:49:25;;;;;;;5.53;3.20;;;22.10;58.90;;;;;;5062188;28;20131;-71
2022/05/08 11:51:56;;;;;;;6.45;3.33;;;22.10;59.60;;;;;;5065423;28;20048;-73
2022/05/08 11:54:32;;;;;;;5.28;3.30;;;22.10;60.70;;;;;;5069538;28;20045;-71
2022/05/08 11:57:14;;;;;;;5.80;3.15;;;22.10;60.70;;;;;;5071183;28;20115;-71
2022/05/08 11:59:43;;;;;;;9.50;3.60;;;22.10;60.80;;;;;;5070842;28;20139;-72
2022/05/08 12:02:12;;;;;;;6.03;3.28;;;22.00;61.20;;;;;;5068653;28;20117;-73
2022/05/08 12:04:41;;;;;;;4.57;3.07;;;21.90;61.40;;;;;;5065996;28;20048;-73
2022/05/08 12:07:11;;;;;;;6.65;3.20;;;21.80;61.10;;;;;;5065082;28;20056;-70
2022/05/08 12:09:41;;;;;;;7.63;3.33;;;21.80;61.20;;;;;;5069760;28;20044;-71
2022/05/08 12:12:29;;;;;;;7.35;3.35;;;21.70;61.00;;;;;;5068506;28;20044;-72
2022/05/08 12:15:01;;;;;;;5.78;3.20;;;21.70;60.40;;;;;;5069054;28;20060;-73
2022/05/08 12:17:28;;;;;;;6.63;3.00;;;21.60;60.20;;;;;;5071526;28;20135;-72
2022/05/08 12:19:56;;;;;;;4.53;2.58;;;21.60;60.10;;;;;;5069129;28;20123;-72
2022/05/08 12:22:26;;;;;;;5.32;3.22;;;21.60;59.90;;;;;;5049672;28;20411;-72
2022/05/08 12:24:53;;;;;;;4.30;3.00;;;21.50;60.00;;;;;;5072327;28;20043;-72
2022/05/08 12:27:20;;;;;;;6.55;2.80;;;21.50;60.20;;;;;;5061738;28;20052;-72
2022/05/08 12:29:53;;;;;;;4.35;2.80;;;21.40;60.30;;;;;;5052087;28;20071;-70
2022/05/08 12:32:20;;;;;;;6.05;2.90;;;21.40;60.40;;;;;;5060173;28;20118;-73
2022/05/08 12:34:49;;;;;;;5.25;3.25;;;21.30;60.30;;;;;;5049825;28;20517;-73
2022/05/08 12:37:18;;;;;;;4.35;2.85;;;21.30;60.70;;;;;;5040260;28;20099;-73
2022/05/08 12:39:47;;;;;;;6.45;2.95;;;21.20;60.20;;;;;;5047787;28;20119;-73
2022/05/08 12:42:14;;;;;;;5.07;2.88;;;21.20;60.00;;;;;;5047783;28;20525;-72
2022/05/08 12:44:43;;;;;;;6.80;3.30;;;21.10;59.80;;;;;;5048387;28;20041;-71
2022/05/08 12:47:11;;;;;;;4.57;2.97;;;21.00;59.90;;;;;;5048161;28;20072;-72
2022/05/08 12:49:41;;;;;;;5.00;2.75;;;20.90;59.70;;;;;;5046382;28;21128;-73
2022/05/08 12:52:09;;;;;;;7.85;3.38;;;20.80;60.10;;;;;;5043702;28;20561;-73
2022/05/08 12:54:37;;;;;;;10.65;5.95;;;20.70;60.70;;;;;;5047004;28;20064;-72
2022/05/08 12:57:08;;;;;;;16.83;9.98;;;20.70;61.30;;;;;;5029669;28;20457;-74
2022/05/08 12:59:43;;;;;;;20.52;11.10;;;20.70;61.80;;;;;;5046992;28;20041;-74
2022/05/08 13:02:11;;;;;;;15.98;7.85;;;20.60;62.30;;;;;;5040776;28;20136;-72
2022/05/08 13:04:39;;;;;;;11.55;6.95;;;20.60;62.80;;;;;;5046220;28;20056;-72
2022/05/08 13:07:06;;;;;;;6.75;4.40;;;20.60;63.10;;;;;;5050479;28;20037;-72
2022/05/08 13:09:33;;;;;;;8.45;4.70;;;20.60;63.10;;;;;;5048466;28;20475;-71
2022/05/08 13:12:03;;;;;;;7.03;4.35;;;20.60;63.60;;;;;;5049089;28;20116;-73
2022/05/08 13:14:31;;;;;;;8.98;4.20;;;20.60;63.50;;;;;;5046469;28;20129;-73
2022/05/08 13:17:01;;;;;;;5.80;3.72;;;20.60;64.60;;;;;;5046356;28;20052;-72
2022/05/08 13:19:29;;;;;;;6.30;3.13;;;20.60;64.40;;;;;;5051564;28;20052;-73
2022/05/08 13:21:56;;;;;;;6.43;3.90;;;20.60;64.00;;;;;;5052069;28;20055;-73